sensor_id;sensor_type;location;lat;lon;timestamp;pressure;altitude;pressure_sealevel;temperature;humidity
54936;BME280;40838;50.676;7.838;2023-02-11T00:00:53;100129.00;;;1.61;100.00
54936;BME280;40838;50.676;7.838;2023-02-11T00:03:20;100139.06;;;0.78;100.00
54936;BME280;40838;50.676;7.838;2023-02-11T00:05:57;100136.03;;;0.50;100.00
54936;BME280;40838;50.676;7.838;2023-02-11T00:08:25;100126.41;;;1.53;100.00
54936;BME280;40838;50.676;7.838;2023-02-11T00:10:52;100127.66;;;1.65;100.00
54936;BME280;40838;50.676;7.838;2023-02-11T00:13:19;100128.66;;;1.64;100.00
54936;BME280;40838;50.676;7.838;2023-02-11T00:15:46;100123.06;;;1.36;100.00
54936;BME280;40838;50.676;7.838;2023-02-11T00:18:13;100122.41;;;1.02;100.00
54936;BME280;40838;50.676;7.838;2023-02-11T00:20:41;100121.56;;;1.41;100.00
54936;BME280;40838;50.676;7.838;2023-02-11T00:23:09;100124.66;;;1.68;100.00
54936;BME280;40838;50.676;7.838;2023-02-11T00:25:38;100119.69;;;1.50;100.00
54936;BME280;40838;50.676;7.838;2023-02-11T00:28:05;100120.91;;;1.39;100.00
54936;BME280;40838;50.676;7.838;2023-02-11T00:30:32;100110.19;;;1.49;100.00
54936;BME280;40838;50.676;7.838;2023-02-11T00:32:59;100115.78;;;1.15;100.00
54936;BME280;40838;50.676;7.838;2023-02-11T00:35:26;100111.06;;;1.41;100.00
54936;BME280;40838;50.676;7.838;2023-02-11T00:37:54;100108.84;;;1.53;100.00
54936;BME280;40838;50.676;7.838;2023-02-11T00:40:22;100108.56;;;1.71;100.00
54936;BME280;40838;50.676;7.838;2023-02-11T00:42:49;100100.97;;;1.22;100.00
54936;BME280;40838;50.676;7.838;2023-02-11T00:45:16;100099.22;;;1.14;100.00
54936;BME280;40838;50.676;7.838;2023-02-11T00:47:43;100099.97;;;1.00;100.00
54936;BME280;40838;50.676;7.838;2023-02-11T00:50:10;100089.03;;;0.88;100.00
54936;BME280;40838;50.676;7.838;2023-02-11T00:52:36;100094.41;;;0.87;100.00
54936;BME280;40838;50.676;7.838;2023-02-11T00:55:04;100090.28;;;1.00;100.00
54936;BME280;40838;50.676;7.838;2023-02-11T00:57:33;100085.00;;;1.09;100.00
54936;BME280;40838;50.676;7.838;2023-02-11T00:59:59;100084.75;;;1.18;100.00
54936;BME280;40838;50.676;7.838;2023-02-11T01:02:26;100088.25;;;1.11;100.00
54936;BME280;40838;50.676;7.838;2023-02-11T01:04:53;100090.31;;;1.23;100.00
54936;BME280;40838;50.676;7.838;2023-02-11T01:07:20;100086.31;;;1.04;100.00
54936;BME280;40838;50.676;7.838;2023-02-11T01:09:47;100089.72;;;0.74;100.00
54936;BME280;40838;50.676;7.838;2023-02-11T01:12:14;100097.13;;;0.70;100.00
54936;BME280;40838;50.676;7.838;2023-02-11T01:14:42;100090.75;;;1.04;100.00
54936;BME280;40838;50.676;7.838;2023-02-11T01:17:10;100089.53;;;0.75;100.00
54936;BME280;40838;50.676;7.838;2023-02-11T01:19:37;100096.63;;;0.67;100.00
54936;BME280;40838;50.676;7.838;2023-02-11T01:22:05;100085.28;;;0.74;100.00
54936;BME280;40838;50.676;7.838;2023-02-11T01:24:32;100086.09;;;0.83;100.00
54936;BME280;40838;50.676;7.838;2023-02-11T01:26:59;100077.59;;;0.73;100.00
54936;BME280;40838;50.676;7.838;2023-02-11T01:29:26;100085.88;;;0.53;100.00
54936;BME280;40838;50.676;7.838;2023-02-11T01:31:54;100090.72;;;0.01;100.00
54936;BME280;40838;50.676;7.838;2023-02-11T01:34:24;100079.34;;;0.33;100.00
54936;BME280;40838;50.676;7.838;2023-02-11T01:36:56;100072.56;;;0.55;100.00
54936;BME280;40838;50.676;7.838;2023-02-11T01:39:23;100079.47;;;0.56;100.00
54936;BME280;40838;50.676;7.838;2023-02-11T01:41:49;100077.75;;;0.16;100.00
54936;BME280;40838;50.676;7.838;2023-02-11T01:44:34;100057.00;;;0.62;100.00
54936;BME280;40838;50.676;7.838;2023-02-11T01:47:03;100065.50;;;0.64;100.00
54936;BME280;40838;50.676;7.838;2023-02-11T01:49:32;100060.72;;;-0.54;100.00
54936;BME280;40838;50.676;7.838;2023-02-11T01:52:03;100071.97;;;0.28;100.00
54936;BME280;40838;50.676;7.838;2023-02-11T01:54:32;100072.19;;;-0.31;100.00
54936;BME280;40838;50.676;7.838;2023-02-11T01:57:21;100074.78;;;0.35;100.00
54936;BME280;40838;50.676;7.838;2023-02-11T02:00:05;100081.34;;;0.23;100.00
54936;BME280;40838;50.676;7.838;2023-02-11T02:05:39;100078.41;;;0.09;100.00
54936;BME280;40838;50.676;7.838;2023-02-11T02:08:10;100081.81;;;-0.39;100.00
54936;BME280;40838;50.676;7.838;2023-02-11T02:10:41;100086.69;;;0.46;100.00
54936;BME280;40838;50.676;7.838;2023-02-11T02:13:09;100095.53;;;0.61;100.00
54936;BME280;40838;50.676;7.838;2023-02-11T02:15:39;100093.44;;;0.88;100.00
54936;BME280;40838;50.676;7.838;2023-02-11T02:18:20;100098.91;;;0.70;100.00
54936;BME280;40838;50.676;7.838;2023-02-11T02:21:21;100100.47;;;0.31;100.00
54936;BME280;40838;50.676;7.838;2023-02-11T02:24:34;100090.34;;;0.84;100.00
54936;BME280;40838;50.676;7.838;2023-02-11T02:27:23;100094.88;;;0.59;100.00
54936;BME280;40838;50.676;7.838;2023-02-11T02:30:24;100090.03;;;0.15;100.00
54936;BME280;40838;50.676;7.838;2023-02-11T02:33:03;100089.84;;;0.89;100.00
54936;BME280;40838;50.676;7.838;2023-02-11T02:35:36;100085.03;;;1.00;100.00
54936;BME280;40838;50.676;7.838;2023-02-11T02:38:10;100077.97;;;1.01;100.00
54936;BME280;40838;50.676;7.838;2023-02-11T02:40:44;100076.16;;;1.01;100.00
54936;BME280;40838;50.676;7.838;2023-02-11T02:43:13;100084.91;;;0.94;100.00
54936;BME280;40838;50.676;7.838;2023-02-11T02:45:40;100088.69;;;0.91;100.00
54936;BME280;40838;50.676;7.838;2023-02-11T02:48:25;100076.94;;;0.71;100.00
54936;BME280;40838;50.676;7.838;2023-02-11T02:50:52;100078.06;;;-0.37;100.00
54936;BME280;40838;50.676;7.838;2023-02-11T02:53:31;100076.31;;;-0.95;100.00
54936;BME280;40838;50.676;7.838;2023-02-11T02:56:08;100078.41;;;-0.07;100.00
54936;BME280;40838;50.676;7.838;2023-02-11T02:59:08;100074.47;;;0.22;100.00
54936;BME280;40838;50.676;7.838;2023-02-11T03:01:49;100066.75;;;0.28;100.00
54936;BME280;40838;50.676;7.838;2023-02-11T03:04:28;100058.38;;;0.33;100.00
54936;BME280;40838;50.676;7.838;2023-02-11T03:07:01;100041.97;;;0.47;100.00
54936;BME280;40838;50.676;7.838;2023-02-11T03:09:32;100047.75;;;0.26;100.00
54936;BME280;40838;50.676;7.838;2023-02-11T03:12:03;100050.59;;;0.08;100.00
54936;BME280;40838;50.676;7.838;2023-02-11T03:14:32;100036.59;;;0.41;100.00
54936;BME280;40838;50.676;7.838;2023-02-11T03:17:02;100038.44;;;0.63;100.00
54936;BME280;40838;50.676;7.838;2023-02-11T03:19:34;100029.88;;;0.69;100.00
54936;BME280;40838;50.676;7.838;2023-02-11T03:22:06;100024.38;;;-0.57;100.00
54936;BME280;40838;50.676;7.838;2023-02-11T03:24:36;100024.22;;;-0.31;100.00
54936;BME280;40838;50.676;7.838;2023-02-11T03:27:08;100012.47;;;0.37;100.00
54936;BME280;40838;50.676;7.838;2023-02-11T03:29:41;100009.97;;;-0.04;100.00
54936;BME280;40838;50.676;7.838;2023-02-11T03:32:12;100004.97;;;0.26;100.00
54936;BME280;40838;50.676;7.838;2023-02-11T03:34:47;100011.88;;;0.27;100.00
54936;BME280;40838;50.676;7.838;2023-02-11T03:37:17;100012.78;;;0.42;100.00
54936;BME280;40838;50.676;7.838;2023-02-11T03:39:50;100020.66;;;0.42;100.00
54936;BME280;40838;50.676;7.838;2023-02-11T03:42:18;100029.44;;;0.10;100.00
54936;BME280;40838;50.676;7.838;2023-02-11T03:44:49;100026.41;;;0.38;100.00
54936;BME280;40838;50.676;7.838;2023-02-11T03:47:20;100042.03;;;-0.75;100.00
54936;BME280;40838;50.676;7.838;2023-02-11T03:49:50;100034.84;;;-0.82;100.00
54936;BME280;40838;50.676;7.838;2023-02-11T03:52:19;100032.88;;;-0.22;100.00
54936;BME280;40838;50.676;7.838;2023-02-11T03:54:50;100028.78;;;0.08;100.00
54936;BME280;40838;50.676;7.838;2023-02-11T03:57:19;100026.16;;;0.08;100.00
54936;BME280;40838;50.676;7.838;2023-02-11T03:59:50;100034.69;;;-0.31;100.00
54936;BME280;40838;50.676;7.838;2023-02-11T04:02:17;100033.00;;;0.17;100.00
54936;BME280;40838;50.676;7.838;2023-02-11T04:04:45;100032.78;;;0.43;100.00
54936;BME280;40838;50.676;7.838;2023-02-11T04:07:13;100029.00;;;0.46;100.00
54936;BME280;40838;50.676;7.838;2023-02-11T04:09:40;100028.94;;;0.62;100.00
54936;BME280;40838;50.676;7.838;2023-02-11T04:12:07;100026.78;;;0.66;100.00
54936;BME280;40838;50.676;7.838;2023-02-11T04:14:34;100026.47;;;0.61;100.00
54936;BME280;40838;50.676;7.838;2023-02-11T04:17:01;100021.78;;;0.48;100.00
54936;BME280;40838;50.676;7.838;2023-02-11T04:19:28;100023.88;;;0.61;100.00
54936;BME280;40838;50.676;7.838;2023-02-11T04:21:55;100016.16;;;0.67;100.00
54936;BME280;40838;50.676;7.838;2023-02-11T04:24:23;100011.97;;;0.81;100.00
54936;BME280;40838;50.676;7.838;2023-02-11T04:26:50;100016.94;;;0.76;100.00
54936;BME280;40838;50.676;7.838;2023-02-11T04:29:17;100006.75;;;0.33;100.00
54936;BME280;40838;50.676;7.838;2023-02-11T04:31:43;100013.25;;;-0.67;100.00
54936;BME280;40838;50.676;7.838;2023-02-11T04:34:10;100018.50;;;-0.43;100.00
54936;BME280;40838;50.676;7.838;2023-02-11T04:36:37;100003.00;;;0.28;100.00
54936;BME280;40838;50.676;7.838;2023-02-11T04:39:04;100000.63;;;-0.88;100.00
54936;BME280;40838;50.676;7.838;2023-02-11T04:41:32;100004.25;;;-0.24;100.00
54936;BME280;40838;50.676;7.838;2023-02-11T04:43:59;100000.38;;;0.36;100.00
54936;BME280;40838;50.676;7.838;2023-02-11T04:46:26;100011.09;;;0.57;100.00
54936;BME280;40838;50.676;7.838;2023-02-11T04:48:53;100009.41;;;0.73;100.00
54936;BME280;40838;50.676;7.838;2023-02-11T04:51:19;100000.69;;;0.72;100.00
54936;BME280;40838;50.676;7.838;2023-02-11T04:53:46;99996.53;;;0.86;100.00
54936;BME280;40838;50.676;7.838;2023-02-11T04:56:13;99994.44;;;0.81;100.00
54936;BME280;40838;50.676;7.838;2023-02-11T04:58:41;100000.34;;;0.75;100.00
54936;BME280;40838;50.676;7.838;2023-02-11T05:01:10;100000.66;;;0.80;100.00
54936;BME280;40838;50.676;7.838;2023-02-11T05:03:37;100003.31;;;0.72;100.00
54936;BME280;40838;50.676;7.838;2023-02-11T05:06:05;100009.22;;;0.74;100.00
54936;BME280;40838;50.676;7.838;2023-02-11T05:08:32;100021.03;;;0.23;100.00
54936;BME280;40838;50.676;7.838;2023-02-11T05:10:59;100024.66;;;0.22;100.00
54936;BME280;40838;50.676;7.838;2023-02-11T05:13:26;100016.63;;;0.71;100.00
54936;BME280;40838;50.676;7.838;2023-02-11T05:15:54;100018.16;;;-0.07;100.00
54936;BME280;40838;50.676;7.838;2023-02-11T05:18:21;100006.72;;;-0.63;100.00
54936;BME280;40838;50.676;7.838;2023-02-11T05:20:48;100013.19;;;0.23;100.00
54936;BME280;40838;50.676;7.838;2023-02-11T05:23:15;100016.56;;;0.48;100.00
54936;BME280;40838;50.676;7.838;2023-02-11T05:25:42;100005.47;;;0.69;100.00
54936;BME280;40838;50.676;7.838;2023-02-11T05:28:09;100005.75;;;0.82;100.00
54936;BME280;40838;50.676;7.838;2023-02-11T05:30:36;99998.97;;;0.56;100.00
54936;BME280;40838;50.676;7.838;2023-02-11T05:33:04;99998.13;;;0.64;100.00
54936;BME280;40838;50.676;7.838;2023-02-11T05:35:31;100001.38;;;0.66;100.00
54936;BME280;40838;50.676;7.838;2023-02-11T05:37:58;100009.22;;;0.74;100.00
54936;BME280;40838;50.676;7.838;2023-02-11T05:40:24;100009.25;;;0.66;100.00
54936;BME280;40838;50.676;7.838;2023-02-11T05:42:51;100011.00;;;0.34;100.00
54936;BME280;40838;50.676;7.838;2023-02-11T05:45:18;100019.25;;;0.23;100.00
54936;BME280;40838;50.676;7.838;2023-02-11T05:47:45;100011.88;;;0.66;100.00
54936;BME280;40838;50.676;7.838;2023-02-11T05:50:13;100016.69;;;0.54;100.00
54936;BME280;40838;50.676;7.838;2023-02-11T05:52:40;100001.81;;;0.78;100.00
54936;BME280;40838;50.676;7.838;2023-02-11T05:55:07;99998.16;;;0.87;100.00
54936;BME280;40838;50.676;7.838;2023-02-11T05:57:34;100005.69;;;0.90;100.00
54936;BME280;40838;50.676;7.838;2023-02-11T06:00:01;100003.41;;;0.87;100.00
54936;BME280;40838;50.676;7.838;2023-02-11T06:02:38;100012.94;;;-0.23;100.00
54936;BME280;40838;50.676;7.838;2023-02-11T06:05:05;99998.78;;;0.19;100.00
54936;BME280;40838;50.676;7.838;2023-02-11T06:07:34;99999.03;;;0.40;100.00
54936;BME280;40838;50.676;7.838;2023-02-11T06:10:01;100007.66;;;-0.15;100.00
54936;BME280;40838;50.676;7.838;2023-02-11T06:12:27;100004.72;;;-0.04;100.00
54936;BME280;40838;50.676;7.838;2023-02-11T06:14:54;99993.50;;;0.35;100.00
54936;BME280;40838;50.676;7.838;2023-02-11T06:17:21;99993.88;;;0.24;100.00
54936;BME280;40838;50.676;7.838;2023-02-11T06:19:49;99985.84;;;0.56;100.00
54936;BME280;40838;50.676;7.838;2023-02-11T06:22:16;99981.56;;;0.64;100.00
54936;BME280;40838;50.676;7.838;2023-02-11T06:24:44;99979.19;;;0.77;100.00
54936;BME280;40838;50.676;7.838;2023-02-11T06:27:11;99976.66;;;0.61;100.00
54936;BME280;40838;50.676;7.838;2023-02-11T06:29:38;99981.94;;;0.84;100.00
54936;BME280;40838;50.676;7.838;2023-02-11T06:32:05;99978.84;;;0.80;100.00
54936;BME280;40838;50.676;7.838;2023-02-11T06:34:32;99994.22;;;0.04;100.00
54936;BME280;40838;50.676;7.838;2023-02-11T06:36:58;99983.94;;;0.42;100.00
54936;BME280;40838;50.676;7.838;2023-02-11T06:39:25;99987.91;;;-0.59;100.00
54936;BME280;40838;50.676;7.838;2023-02-11T06:41:53;99986.84;;;-1.23;100.00
54936;BME280;40838;50.676;7.838;2023-02-11T06:44:20;99992.31;;;-0.75;100.00
54936;BME280;40838;50.676;7.838;2023-02-11T06:46:47;99995.41;;;-0.39;100.00
54936;BME280;40838;50.676;7.838;2023-02-11T06:49:14;99987.06;;;-0.26;100.00
54936;BME280;40838;50.676;7.838;2023-02-11T06:51:41;100002.03;;;0.29;100.00
54936;BME280;40838;50.676;7.838;2023-02-11T06:54:08;100008.34;;;0.51;100.00
54936;BME280;40838;50.676;7.838;2023-02-11T06:56:34;100003.38;;;0.64;100.00
54936;BME280;40838;50.676;7.838;2023-02-11T06:59:03;100015.06;;;0.53;100.00
54936;BME280;40838;50.676;7.838;2023-02-11T07:01:29;100019.78;;;0.58;100.00
54936;BME280;40838;50.676;7.838;2023-02-11T07:03:56;100015.34;;;0.90;100.00
54936;BME280;40838;50.676;7.838;2023-02-11T07:06:24;100009.34;;;0.81;100.00
54936;BME280;40838;50.676;7.838;2023-02-11T07:08:53;100013.31;;;1.08;100.00
54936;BME280;40838;50.676;7.838;2023-02-11T07:11:21;100018.31;;;1.18;100.00
54936;BME280;40838;50.676;7.838;2023-02-11T07:13:50;100024.31;;;1.03;100.00
54936;BME280;40838;50.676;7.838;2023-02-11T07:16:18;100020.94;;;0.87;100.00
54936;BME280;40838;50.676;7.838;2023-02-11T07:18:46;100017.22;;;0.42;100.00
54936;BME280;40838;50.676;7.838;2023-02-11T07:21:15;100013.88;;;0.64;100.00
54936;BME280;40838;50.676;7.838;2023-02-11T07:23:42;100016.88;;;0.84;100.00
54936;BME280;40838;50.676;7.838;2023-02-11T07:26:11;100024.44;;;1.10;100.00
54936;BME280;40838;50.676;7.838;2023-02-11T07:28:39;100023.75;;;0.85;100.00
54936;BME280;40838;50.676;7.838;2023-02-11T07:31:07;100033.44;;;0.85;100.00
54936;BME280;40838;50.676;7.838;2023-02-11T07:33:38;100039.97;;;0.89;100.00
54936;BME280;40838;50.676;7.838;2023-02-11T07:36:06;100031.50;;;1.10;100.00
54936;BME280;40838;50.676;7.838;2023-02-11T07:38:34;100035.47;;;1.06;100.00
54936;BME280;40838;50.676;7.838;2023-02-11T07:41:02;100033.88;;;0.96;100.00
54936;BME280;40838;50.676;7.838;2023-02-11T07:43:30;100046.00;;;1.29;100.00
54936;BME280;40838;50.676;7.838;2023-02-11T07:45:57;100038.94;;;1.29;100.00
54936;BME280;40838;50.676;7.838;2023-02-11T07:48:25;100044.97;;;1.07;100.00
54936;BME280;40838;50.676;7.838;2023-02-11T07:50:53;100038.94;;;1.29;100.00
54936;BME280;40838;50.676;7.838;2023-02-11T07:53:21;100033.72;;;1.21;100.00
54936;BME280;40838;50.676;7.838;2023-02-11T07:55:48;100037.09;;;1.07;100.00
54936;BME280;40838;50.676;7.838;2023-02-11T07:58:15;100047.56;;;1.38;100.00
54936;BME280;40838;50.676;7.838;2023-02-11T08:00:42;100044.88;;;1.46;100.00
54936;BME280;40838;50.676;7.838;2023-02-11T08:03:10;100057.13;;;1.31;100.00
54936;BME280;40838;50.676;7.838;2023-02-11T08:05:37;100066.13;;;1.59;100.00
54936;BME280;40838;50.676;7.838;2023-02-11T08:08:05;100061.16;;;1.41;100.00
54936;BME280;40838;50.676;7.838;2023-02-11T08:10:32;100065.03;;;1.22;100.00
54936;BME280;40838;50.676;7.838;2023-02-11T08:12:59;100057.34;;;1.21;100.00
54936;BME280;40838;50.676;7.838;2023-02-11T08:15:26;100054.69;;;1.29;100.00
54936;BME280;40838;50.676;7.838;2023-02-11T08:17:52;100045.16;;;1.51;100.00
54936;BME280;40838;50.676;7.838;2023-02-11T08:20:19;100050.28;;;1.44;100.00
54936;BME280;40838;50.676;7.838;2023-02-11T08:22:46;100055.50;;;1.53;100.00
54936;BME280;40838;50.676;7.838;2023-02-11T08:25:14;100061.59;;;1.22;100.00
54936;BME280;40838;50.676;7.838;2023-02-11T08:27:41;100052.81;;;1.61;100.00
54936;BME280;40838;50.676;7.838;2023-02-11T08:30:09;100056.19;;;1.46;100.00
54936;BME280;40838;50.676;7.838;2023-02-11T08:32:36;100065.06;;;1.45;100.00
54936;BME280;40838;50.676;7.838;2023-02-11T08:35:04;100068.78;;;1.51;100.00
54936;BME280;40838;50.676;7.838;2023-02-11T08:37:32;100073.53;;;1.56;100.00
54936;BME280;40838;50.676;7.838;2023-02-11T08:39:59;100071.72;;;1.33;100.00
54936;BME280;40838;50.676;7.838;2023-02-11T08:42:27;100075.03;;;1.50;100.00
54936;BME280;40838;50.676;7.838;2023-02-11T08:44:54;100070.75;;;1.03;100.00
54936;BME280;40838;50.676;7.838;2023-02-11T08:47:21;100071.06;;;1.31;100.00
54936;BME280;40838;50.676;7.838;2023-02-11T08:49:48;100074.03;;;1.28;100.00
54936;BME280;40838;50.676;7.838;2023-02-11T08:52:15;100080.31;;;1.50;100.00
54936;BME280;40838;50.676;7.838;2023-02-11T08:54:42;100086.22;;;1.75;100.00
54936;BME280;40838;50.676;7.838;2023-02-11T08:57:09;100087.22;;;1.66;100.00
54936;BME280;40838;50.676;7.838;2023-02-11T08:59:37;100085.94;;;1.85;100.00
54936;BME280;40838;50.676;7.838;2023-02-11T09:02:05;100091.25;;;2.00;100.00
54936;BME280;40838;50.676;7.838;2023-02-11T09:04:32;100088.56;;;2.08;100.00
54936;BME280;40838;50.676;7.838;2023-02-11T09:06:59;100086.19;;;2.13;100.00
54936;BME280;40838;50.676;7.838;2023-02-11T09:09:26;100092.00;;;2.08;100.00
54936;BME280;40838;50.676;7.838;2023-02-11T09:11:53;100091.72;;;2.18;100.00
54936;BME280;40838;50.676;7.838;2023-02-11T09:14:23;100087.63;;;2.15;100.00
54936;BME280;40838;50.676;7.838;2023-02-11T09:16:52;100087.75;;;2.22;100.00
54936;BME280;40838;50.676;7.838;2023-02-11T09:19:19;100085.97;;;2.37;100.00
54936;BME280;40838;50.676;7.838;2023-02-11T09:21:47;100092.69;;;2.02;100.00
54936;BME280;40838;50.676;7.838;2023-02-11T09:24:14;100094.81;;;1.84;100.00
54936;BME280;40838;50.676;7.838;2023-02-11T09:26:41;100089.25;;;2.02;100.00
54936;BME280;40838;50.676;7.838;2023-02-11T09:29:08;100089.28;;;2.16;100.00
54936;BME280;40838;50.676;7.838;2023-02-11T09:31:35;100092.56;;;2.33;100.00
54936;BME280;40838;50.676;7.838;2023-02-11T09:34:05;100091.91;;;2.16;100.00
54936;BME280;40838;50.676;7.838;2023-02-11T09:36:35;100098.66;;;2.34;100.00
54936;BME280;40838;50.676;7.838;2023-02-11T09:39:04;100103.72;;;2.35;100.00
54936;BME280;40838;50.676;7.838;2023-02-11T09:41:40;100110.84;;;2.12;100.00
54936;BME280;40838;50.676;7.838;2023-02-11T09:44:15;100116.19;;;2.42;100.00
54936;BME280;40838;50.676;7.838;2023-02-11T09:46:42;100121.72;;;2.47;100.00
54936;BME280;40838;50.676;7.838;2023-02-11T09:49:19;100125.38;;;2.23;100.00
54936;BME280;40838;50.676;7.838;2023-02-11T09:51:48;100128.09;;;1.91;100.00
54936;BME280;40838;50.676;7.838;2023-02-11T09:54:22;100122.72;;;2.08;100.00
54936;BME280;40838;50.676;7.838;2023-02-11T09:56:52;100125.97;;;2.10;100.00
54936;BME280;40838;50.676;7.838;2023-02-11T09:59:19;100116.91;;;2.12;100.00
54936;BME280;40838;50.676;7.838;2023-02-11T10:01:49;100127.88;;;2.16;100.00
54936;BME280;40838;50.676;7.838;2023-02-11T10:04:33;100127.94;;;2.31;100.00
54936;BME280;40838;50.676;7.838;2023-02-11T10:07:07;100140.00;;;2.25;100.00
54936;BME280;40838;50.676;7.838;2023-02-11T10:10:06;100135.88;;;2.46;100.00
54936;BME280;40838;50.676;7.838;2023-02-11T10:12:46;100143.97;;;2.21;100.00
54936;BME280;40838;50.676;7.838;2023-02-11T10:15:21;100145.63;;;2.22;100.00
54936;BME280;40838;50.676;7.838;2023-02-11T10:18:09;100142.44;;;2.27;100.00
54936;BME280;40838;50.676;7.838;2023-02-11T10:20:47;100138.63;;;2.29;100.00
54936;BME280;40838;50.676;7.838;2023-02-11T10:23:17;100129.63;;;2.47;100.00
54936;BME280;40838;50.676;7.838;2023-02-11T10:47:31;100128.38;;;2.57;100.00
54936;BME280;40838;50.676;7.838;2023-02-11T10:50:17;100135.94;;;2.37;100.00
54936;BME280;40838;50.676;7.838;2023-02-11T10:52:44;100125.84;;;2.26;100.00
54936;BME280;40838;50.676;7.838;2023-02-11T11:00:37;100121.31;;;2.20;100.00
54936;BME280;40838;50.676;7.838;2023-02-11T11:11:11;100118.81;;;2.04;100.00
54936;BME280;40838;50.676;7.838;2023-02-11T11:13:40;100114.94;;;2.14;100.00
54936;BME280;40838;50.676;7.838;2023-02-11T11:16:20;100118.53;;;1.99;100.00
54936;BME280;40838;50.676;7.838;2023-02-11T11:18:49;100122.50;;;2.32;100.00
54936;BME280;40838;50.676;7.838;2023-02-11T11:21:19;100119.50;;;2.35;100.00
54936;BME280;40838;50.676;7.838;2023-02-11T11:23:50;100124.44;;;2.53;100.00
54936;BME280;40838;50.676;7.838;2023-02-11T11:26:19;100122.75;;;2.60;100.00
54936;BME280;40838;50.676;7.838;2023-02-11T11:28:52;100125.47;;;2.52;100.00
54936;BME280;40838;50.676;7.838;2023-02-11T11:31:21;100127.66;;;2.26;100.00
54936;BME280;40838;50.676;7.838;2023-02-11T11:33:51;100124.53;;;2.07;100.00
54936;BME280;40838;50.676;7.838;2023-02-11T11:36:20;100123.09;;;2.57;100.00
54936;BME280;40838;50.676;7.838;2023-02-11T11:38:50;100121.38;;;2.79;100.00
54936;BME280;40838;50.676;7.838;2023-02-11T11:41:25;100121.72;;;2.76;100.00
54936;BME280;40838;50.676;7.838;2023-02-11T11:44:00;100125.38;;;2.75;100.00
54936;BME280;40838;50.676;7.838;2023-02-11T11:46:30;100123.28;;;2.85;100.00
54936;BME280;40838;50.676;7.838;2023-02-11T11:49:08;100120.75;;;2.92;100.00
54936;BME280;40838;50.676;7.838;2023-02-11T11:51:41;100115.38;;;2.56;100.00
54936;BME280;40838;50.676;7.838;2023-02-11T11:54:11;100118.25;;;3.05;100.00
54936;BME280;40838;50.676;7.838;2023-02-11T11:56:46;100118.66;;;2.88;100.00
54936;BME280;40838;50.676;7.838;2023-02-11T11:59:16;100115.56;;;2.84;100.00
54936;BME280;40838;50.676;7.838;2023-02-11T12:01:53;100125.16;;;2.92;100.00
54936;BME280;40838;50.676;7.838;2023-02-11T12:04:41;100127.41;;;3.09;100.00
54936;BME280;40838;50.676;7.838;2023-02-11T12:07:22;100121.81;;;3.13;100.00
54936;BME280;40838;50.676;7.838;2023-02-11T12:10:05;100127.72;;;3.00;100.00
54936;BME280;40838;50.676;7.838;2023-02-11T12:12:45;100126.00;;;2.92;100.00
54936;BME280;40838;50.676;7.838;2023-02-11T12:15:25;100128.72;;;2.99;100.00
54936;BME280;40838;50.676;7.838;2023-02-11T12:18:15;100129.25;;;2.94;100.00
54936;BME280;40838;50.676;7.838;2023-02-11T12:20:55;100125.28;;;2.98;100.00
54936;BME280;40838;50.676;7.838;2023-02-11T12:23:38;100123.88;;;3.17;100.00
54936;BME280;40838;50.676;7.838;2023-02-11T12:26:13;100127.06;;;3.13;100.00
54936;BME280;40838;50.676;7.838;2023-02-11T12:28:57;100118.94;;;3.29;100.00
54936;BME280;40838;50.676;7.838;2023-02-11T12:31:38;100125.22;;;3.28;100.00
54936;BME280;40838;50.676;7.838;2023-02-11T12:34:29;100124.75;;;3.39;100.00
54936;BME280;40838;50.676;7.838;2023-02-11T12:37:05;100116.84;;;3.39;100.00
54936;BME280;40838;50.676;7.838;2023-02-11T12:39:42;100113.56;;;3.37;100.00
54936;BME280;40838;50.676;7.838;2023-02-11T12:42:32;100109.31;;;3.36;100.00
54936;BME280;40838;50.676;7.838;2023-02-11T12:45:40;100121.50;;;3.22;100.00
54936;BME280;40838;50.676;7.838;2023-02-11T12:48:17;100115.00;;;3.40;100.00
54936;BME280;40838;50.676;7.838;2023-02-11T12:50:55;100117.66;;;3.40;100.00
54936;BME280;40838;50.676;7.838;2023-02-11T12:53:40;100116.09;;;3.45;100.00
54936;BME280;40838;50.676;7.838;2023-02-11T12:56:16;100108.34;;;3.44;100.00
54936;BME280;40838;50.676;7.838;2023-02-11T12:58:47;100111.56;;;3.61;100.00
54936;BME280;40838;50.676;7.838;2023-02-11T13:01:22;100107.38;;;3.45;100.00
54936;BME280;40838;50.676;7.838;2023-02-11T13:03:54;100111.81;;;3.44;100.00
54936;BME280;40838;50.676;7.838;2023-02-11T13:06:28;100111.94;;;3.58;100.00
54936;BME280;40838;50.676;7.838;2023-02-11T13:08:59;100109.75;;;3.61;100.00
54936;BME280;40838;50.676;7.838;2023-02-11T13:11:30;100113.03;;;3.63;100.00
54936;BME280;40838;50.676;7.838;2023-02-11T13:14:01;100102.59;;;3.55;100.00
54936;BME280;40838;50.676;7.838;2023-02-11T13:16:37;100098.88;;;3.49;100.00
54936;BME280;40838;50.676;7.838;2023-02-11T13:19:14;100100.41;;;3.59;100.00
54936;BME280;40838;50.676;7.838;2023-02-11T13:21:58;100097.81;;;3.44;100.00
54936;BME280;40838;50.676;7.838;2023-02-11T13:24:33;100094.19;;;3.66;100.00
54936;BME280;40838;50.676;7.838;2023-02-11T13:27:09;100090.97;;;3.49;100.00
54936;BME280;40838;50.676;7.838;2023-02-11T13:30:02;100095.56;;;3.41;100.00
54936;BME280;40838;50.676;7.838;2023-02-11T13:33:02;100084.38;;;3.39;100.00
54936;BME280;40838;50.676;7.838;2023-02-11T13:35:32;100086.03;;;3.40;100.00
54936;BME280;40838;50.676;7.838;2023-02-11T13:38:00;100083.69;;;3.30;100.00
54936;BME280;40838;50.676;7.838;2023-02-11T13:40:29;100087.41;;;3.57;100.00
54936;BME280;40838;50.676;7.838;2023-02-11T13:42:59;100080.63;;;3.69;100.00
54936;BME280;40838;50.676;7.838;2023-02-11T13:45:29;100080.00;;;3.89;100.00
54936;BME280;40838;50.676;7.838;2023-02-11T13:47:57;100071.41;;;3.80;100.00